createdAt,value
2018-07-14T00:00:27.193Z,18.4
2018-07-14T00:01:27.907Z,18.3
2018-07-14T00:02:28.566Z,18.4
2018-07-14T00:03:29.235Z,18.2
2018-07-14T00:04:29.898Z,18.3
2018-07-14T00:05:30.560Z,18.3
2018-07-14T00:06:31.235Z,18.2
2018-07-14T00:07:31.932Z,18.3
2018-07-14T00:08:32.641Z,18.3
2018-07-14T00:09:33.305Z,18.3
2018-07-14T00:10:33.971Z,18.3
2018-07-14T00:11:34.637Z,18.3
2018-07-14T00:12:35.302Z,18.2
2018-07-14T00:13:36.013Z,18.3
2018-07-14T00:14:36.677Z,18.2
2018-07-14T00:15:37.385Z,18.2
2018-07-14T00:16:38.049Z,18.2
2018-07-14T00:17:38.715Z,18.1
2018-07-14T00:18:39.378Z,18.1
2018-07-14T00:19:40.044Z,18.0
2018-07-14T00:20:40.708Z,18.1
2018-07-14T00:21:41.373Z,18.1
2018-07-14T00:22:42.038Z,18.1
2018-07-14T00:23:42.703Z,18.1
2018-07-14T00:24:43.370Z,18.1
2018-07-14T00:25:44.035Z,18.1
2018-07-14T00:26:44.703Z,18.0
2018-07-14T00:27:45.366Z,18.1
2018-07-14T00:28:46.029Z,18.0
2018-07-14T00:29:46.693Z,18.0
2018-07-14T00:30:47.358Z,18.0
2018-07-14T00:31:48.024Z,18.0
2018-07-14T00:32:48.688Z,18.0
2018-07-14T00:33:49.353Z,18.0
2018-07-14T00:34:50.016Z,18.0
2018-07-14T00:35:50.681Z,17.9
2018-07-14T00:36:51.346Z,17.9
2018-07-14T00:37:52.057Z,18.0
2018-07-14T00:38:52.768Z,18.0
2018-07-14T00:39:53.433Z,17.9
2018-07-14T00:40:54.099Z,17.9
2018-07-14T00:41:54.762Z,17.9
2018-07-14T00:42:55.427Z,17.9
2018-07-14T00:43:56.091Z,17.9
2018-07-14T00:44:56.763Z,17.9
2018-07-14T00:45:57.421Z,17.8
2018-07-14T00:46:58.086Z,17.8
2018-07-14T00:47:58.751Z,17.9
2018-07-14T00:48:59.414Z,17.8
2018-07-14T00:50:00.080Z,17.8
2018-07-14T00:51:00.745Z,17.7
2018-07-14T00:52:01.412Z,17.7
2018-07-14T00:53:02.084Z,17.7
2018-07-14T00:54:02.787Z,17.8
2018-07-14T00:55:03.497Z,17.7
2018-07-14T00:56:04.162Z,17.7
2018-07-14T00:57:04.870Z,17.6
2018-07-14T00:58:05.535Z,17.7
2018-07-14T00:59:06.198Z,17.7
2018-07-14T01:00:06.957Z,17.6
2018-07-14T01:01:07.622Z,17.6
2018-07-14T01:02:08.289Z,17.6
2018-07-14T01:03:08.953Z,17.6
2018-07-14T01:04:09.658Z,17.6
2018-07-14T01:05:10.322Z,17.6
2018-07-14T01:06:10.987Z,17.6
2018-07-14T01:07:11.653Z,17.6
2018-07-14T01:08:12.322Z,17.6
2018-07-14T01:09:12.985Z,17.6
2018-07-14T01:10:13.651Z,17.6
2018-07-14T01:11:14.314Z,17.5
2018-07-14T01:12:14.978Z,17.5
2018-07-14T01:13:15.642Z,17.5
2018-07-14T01:14:16.306Z,17.5
2018-07-14T01:15:16.971Z,17.5
2018-07-14T01:16:17.636Z,17.5
2018-07-14T01:17:18.301Z,17.4
2018-07-14T01:18:18.965Z,17.4
2018-07-14T01:19:19.633Z,17.4
2018-07-14T01:20:20.341Z,17.4
2018-07-14T01:21:21.004Z,17.3
2018-07-14T01:22:21.671Z,17.4
2018-07-14T01:23:22.336Z,17.4
2018-07-14T01:24:23.000Z,17.3
2018-07-14T01:25:23.709Z,17.3
2018-07-14T01:26:24.373Z,17.3
2018-07-14T01:27:25.036Z,17.3
2018-07-14T01:28:25.700Z,17.3
2018-07-14T01:29:26.365Z,17.3
2018-07-14T01:30:27.030Z,17.4
2018-07-14T01:31:27.692Z,17.2
2018-07-14T01:32:28.356Z,17.1
2018-07-14T01:33:29.021Z,17.2
2018-07-14T01:34:29.687Z,17.2
2018-07-14T01:35:30.352Z,17.2
2018-07-14T01:36:31.019Z,17.2
2018-07-14T01:37:31.683Z,17.1
2018-07-14T01:38:32.347Z,17.2
2018-07-14T01:39:33.010Z,17.1
2018-07-14T01:40:33.723Z,17.2
2018-07-14T01:41:34.380Z,17.2
2018-07-14T01:42:35.044Z,17.1
2018-07-14T01:43:35.708Z,17.1
2018-07-14T01:44:36.375Z,17.2
2018-07-14T01:45:37.037Z,17.1
2018-07-14T01:46:37.707Z,17.1
2018-07-14T01:47:38.415Z,17.1
2018-07-14T01:48:39.078Z,17.1
2018-07-14T01:49:39.786Z,17.0
2018-07-14T01:50:40.449Z,17.0
2018-07-14T01:51:41.157Z,17.0
2018-07-14T01:52:41.849Z,16.9
2018-07-14T01:53:42.529Z,17.0
2018-07-14T01:54:43.194Z,17.0
2018-07-14T01:55:43.859Z,16.9
2018-07-14T01:56:44.524Z,16.9
2018-07-14T01:57:45.188Z,16.8
2018-07-14T01:58:45.851Z,16.9
2018-07-14T01:59:46.516Z,16.8
2018-07-14T02:00:47.180Z,16.8
2018-07-14T02:01:47.846Z,16.9
2018-07-14T02:02:48.512Z,16.8
2018-07-14T02:03:49.176Z,16.8
2018-07-14T02:04:49.841Z,16.8
2018-07-14T02:05:50.503Z,16.8
2018-07-14T02:06:51.166Z,16.7
2018-07-14T02:07:51.831Z,16.7
2018-07-14T02:08:52.539Z,16.8
2018-07-14T02:09:53.203Z,16.7
2018-07-14T02:10:53.912Z,16.8
2018-07-14T02:11:54.575Z,16.7
2018-07-14T02:12:55.283Z,16.8
2018-07-14T02:13:55.946Z,16.7
2018-07-14T02:14:56.663Z,16.7
2018-07-14T02:15:57.309Z,16.7
2018-07-14T02:16:57.972Z,16.7
2018-07-14T02:17:58.636Z,16.7
2018-07-14T02:18:59.302Z,16.7
2018-07-14T02:19:59.966Z,16.7
2018-07-14T02:21:00.630Z,16.7
2018-07-14T02:22:01.295Z,16.7
2018-07-14T02:23:02.002Z,16.6
2018-07-14T02:24:02.667Z,16.6
2018-07-14T02:25:03.333Z,16.7
2018-07-14T02:26:03.998Z,16.6
2018-07-14T02:27:04.707Z,16.6
2018-07-14T02:28:05.374Z,16.6
2018-07-14T02:29:06.036Z,16.6
2018-07-14T02:30:06.699Z,16.5
2018-07-14T02:31:07.407Z,16.5
2018-07-14T02:32:08.114Z,16.5
2018-07-14T02:33:08.823Z,16.5
2018-07-14T02:34:09.531Z,16.5
2018-07-14T02:35:10.195Z,16.5
2018-07-14T02:36:10.863Z,16.5
2018-07-14T02:37:11.524Z,16.5
2018-07-14T02:38:12.187Z,16.4
2018-07-14T02:39:12.850Z,16.5
2018-07-14T02:40:13.560Z,16.5
2018-07-14T02:41:14.269Z,16.4
2018-07-14T02:42:14.937Z,16.5
2018-07-14T02:43:15.600Z,16.5
2018-07-14T02:44:16.309Z,16.4
2018-07-14T02:45:16.975Z,16.4
2018-07-14T02:46:17.637Z,16.3
2018-07-14T02:47:18.344Z,16.3
2018-07-14T02:48:19.006Z,16.3
2018-07-14T02:49:19.670Z,16.3
2018-07-14T02:50:20.334Z,16.3
2018-07-14T02:51:21.042Z,16.3
2018-07-14T02:52:21.706Z,16.3
2018-07-14T02:53:22.370Z,16.4
2018-07-14T02:54:23.037Z,16.3
2018-07-14T02:55:23.702Z,16.3
2018-07-14T02:56:24.368Z,16.3
2018-07-14T02:57:25.037Z,16.3
2018-07-14T02:58:25.757Z,16.2
2018-07-14T02:59:26.414Z,16.3
2018-07-14T03:00:27.123Z,16.3
2018-07-14T03:01:27.789Z,16.2
2018-07-14T03:02:28.457Z,16.2
2018-07-14T03:03:29.168Z,16.2
2018-07-14T03:04:29.833Z,16.2
2018-07-14T03:05:30.498Z,16.2
2018-07-14T03:06:31.209Z,16.2
2018-07-14T03:07:31.876Z,16.2
2018-07-14T03:08:32.541Z,16.2
2018-07-14T03:09:33.208Z,16.2
2018-07-14T03:10:33.872Z,16.1
2018-07-14T03:11:34.537Z,16.2
2018-07-14T03:12:35.251Z,16.2
2018-07-14T03:13:35.916Z,16.2
2018-07-14T03:14:36.623Z,16.2
2018-07-14T03:15:37.293Z,16.1
2018-07-14T03:16:37.954Z,16.2
2018-07-14T03:17:38.675Z,16.1
2018-07-14T03:18:39.377Z,16.1
2018-07-14T03:19:40.041Z,16.1
2018-07-14T03:20:40.709Z,16.2
2018-07-14T03:21:41.419Z,16.1
2018-07-14T03:22:42.126Z,16.1
2018-07-14T03:23:42.790Z,16.1
2018-07-14T03:24:43.458Z,16.0
2018-07-14T03:25:44.123Z,16.0
2018-07-14T03:26:44.793Z,16.1
2018-07-14T03:27:45.455Z,16.1
2018-07-14T03:28:46.121Z,16.1
2018-07-14T03:29:46.788Z,16.1
2018-07-14T03:30:47.455Z,16.1
2018-07-14T03:31:48.123Z,16.1
2018-07-14T03:32:48.794Z,16.0
2018-07-14T03:33:49.457Z,16.1
2018-07-14T03:34:50.123Z,16.1
2018-07-14T03:35:50.835Z,16.2
2018-07-14T03:36:51.501Z,16.2
2018-07-14T03:37:52.169Z,16.1
2018-07-14T03:38:52.880Z,16.1
2018-07-14T03:39:53.548Z,16.1
2018-07-14T03:40:54.214Z,16.1
2018-07-14T03:41:54.912Z,16.1
2018-07-14T03:42:55.549Z,16.1
2018-07-14T03:43:56.263Z,16.1
2018-07-14T03:44:56.928Z,16.1
2018-07-14T03:45:57.638Z,16.1
2018-07-14T03:46:58.306Z,16.0
2018-07-14T03:47:58.973Z,16.2
2018-07-14T03:48:59.642Z,16.1
2018-07-14T03:50:00.308Z,16.1
2018-07-14T03:51:00.975Z,16.0
2018-07-14T03:52:01.648Z,16.1
2018-07-14T03:53:02.356Z,16.1
2018-07-14T03:54:03.024Z,16.1
2018-07-14T03:55:03.694Z,16.1
2018-07-14T03:56:04.402Z,16.1
2018-07-14T03:57:05.069Z,16.1
2018-07-14T03:58:05.735Z,16.1
2018-07-14T03:59:06.403Z,16.1
2018-07-14T04:00:07.068Z,16.1
2018-07-14T04:01:07.735Z,16.1
2018-07-14T04:02:08.446Z,16.0
2018-07-14T04:03:09.114Z,16.1
2018-07-14T04:04:09.782Z,16.1
2018-07-14T04:05:10.452Z,16.1
2018-07-14T04:06:11.161Z,16.2
2018-07-14T04:07:11.828Z,16.1
2018-07-14T04:08:12.496Z,16.1
2018-07-14T04:09:13.206Z,16.1
2018-07-14T04:10:13.917Z,16.2
2018-07-14T04:11:14.619Z,16.2
2018-07-14T04:12:15.295Z,16.2
2018-07-14T04:13:15.962Z,16.2
2018-07-14T04:14:16.629Z,16.2
2018-07-14T04:15:17.296Z,16.2
2018-07-14T04:16:17.964Z,16.2
2018-07-14T04:17:18.719Z,16.2
2018-07-14T04:18:19.348Z,16.2
2018-07-14T04:19:20.017Z,16.2
2018-07-14T04:20:20.681Z,16.2
2018-07-14T04:21:21.349Z,16.2
2018-07-14T04:22:22.016Z,16.2
2018-07-14T04:23:22.683Z,16.2
2018-07-14T04:24:23.352Z,16.2
2018-07-14T04:25:24.020Z,16.1
2018-07-14T04:26:24.686Z,16.2
2018-07-14T04:27:25.353Z,16.2
2018-07-14T04:28:26.065Z,16.1
2018-07-14T04:29:26.733Z,16.3
2018-07-14T04:30:27.399Z,16.2
2018-07-14T04:31:28.071Z,16.2
2018-07-14T04:32:28.779Z,16.3
2018-07-14T04:33:29.447Z,16.2
2018-07-14T04:34:30.158Z,16.2
2018-07-14T04:35:30.827Z,16.2
2018-07-14T04:36:31.497Z,16.2
2018-07-14T04:37:32.167Z,16.3
2018-07-14T04:38:32.837Z,16.3
2018-07-14T04:39:33.505Z,16.4
2018-07-14T04:40:34.173Z,16.4
2018-07-14T04:41:34.841Z,16.4
2018-07-14T04:42:35.552Z,16.4
2018-07-14T04:43:36.219Z,16.5
2018-07-14T04:44:36.886Z,16.4
2018-07-14T04:45:37.597Z,16.4
2018-07-14T04:46:38.307Z,16.5
2018-07-14T04:47:38.973Z,16.5
2018-07-14T04:48:39.684Z,16.5
2018-07-14T04:49:40.352Z,16.5
2018-07-14T04:50:41.064Z,16.6
2018-07-14T04:51:41.733Z,16.6
2018-07-14T04:52:42.444Z,16.6
2018-07-14T04:53:43.112Z,16.7
2018-07-14T04:54:43.779Z,16.7
2018-07-14T04:55:44.446Z,16.6
2018-07-14T04:56:45.161Z,16.7
2018-07-14T04:57:45.873Z,16.7
2018-07-14T04:58:46.540Z,16.7
2018-07-14T04:59:47.208Z,16.7
2018-07-14T05:00:47.878Z,16.7
2018-07-14T05:01:48.586Z,16.8
2018-07-14T05:02:49.253Z,16.7
2018-07-14T05:03:49.922Z,16.8
2018-07-14T05:04:50.593Z,16.8
2018-07-14T05:05:51.302Z,16.9
2018-07-14T05:06:51.970Z,16.9
2018-07-14T05:07:52.639Z,16.9
2018-07-14T05:08:53.352Z,16.9
2018-07-14T05:09:54.063Z,17.0
2018-07-14T05:10:54.774Z,17.0
2018-07-14T05:11:55.443Z,16.9
2018-07-14T05:12:56.154Z,16.9
2018-07-14T05:13:56.820Z,17.0
2018-07-14T05:14:57.488Z,17.1
2018-07-14T05:15:58.156Z,17.1
2018-07-14T05:16:58.843Z,17.1
2018-07-14T05:17:59.534Z,17.1
2018-07-14T05:19:00.206Z,17.1
2018-07-14T05:20:00.869Z,17.1
2018-07-14T05:21:01.589Z,17.2
2018-07-14T05:22:02.257Z,17.2
2018-07-14T05:23:02.922Z,17.1
2018-07-14T05:24:03.590Z,17.2
2018-07-14T05:25:04.256Z,17.1
2018-07-14T05:26:04.922Z,17.2
2018-07-14T05:27:05.591Z,17.3
2018-07-14T05:28:06.258Z,17.2
2018-07-14T05:29:06.970Z,17.3
2018-07-14T05:30:07.638Z,17.3
2018-07-14T05:31:08.304Z,17.3
2018-07-14T05:32:08.973Z,17.3
2018-07-14T05:33:09.643Z,17.3
2018-07-14T05:34:10.309Z,17.4
2018-07-14T05:35:10.979Z,17.5
2018-07-14T05:36:11.688Z,17.4
2018-07-14T05:37:12.355Z,17.4
2018-07-14T05:38:13.023Z,17.5
2018-07-14T05:39:13.692Z,17.5
2018-07-14T05:40:14.360Z,17.5
2018-07-14T05:41:15.028Z,17.6
2018-07-14T05:42:15.737Z,17.7
2018-07-14T05:43:16.407Z,17.7
2018-07-14T05:44:17.073Z,17.7
2018-07-14T05:45:17.741Z,17.7
2018-07-14T05:46:18.408Z,17.8
2018-07-14T05:47:19.077Z,17.8
2018-07-14T05:48:19.747Z,17.8
2018-07-14T05:49:20.414Z,17.8
2018-07-14T05:50:21.084Z,17.9
2018-07-14T05:51:21.798Z,17.9
2018-07-14T05:52:22.470Z,18.0
2018-07-14T05:53:23.140Z,18.0
2018-07-14T05:54:23.811Z,18.0
2018-07-14T05:55:24.526Z,18.0
2018-07-14T05:56:25.238Z,18.0
2018-07-14T05:57:25.909Z,18.1
2018-07-14T05:58:26.580Z,18.1
2018-07-14T05:59:27.246Z,18.1
2018-07-14T06:00:27.917Z,18.2
2018-07-14T06:01:28.631Z,18.2
2018-07-14T06:02:29.346Z,18.3
2018-07-14T06:03:30.017Z,18.3
2018-07-14T06:04:30.686Z,18.3
2018-07-14T06:05:31.399Z,18.4
2018-07-14T06:06:32.067Z,18.5
2018-07-14T06:07:32.737Z,18.4
2018-07-14T06:08:33.410Z,18.4
2018-07-14T06:09:34.119Z,18.5
2018-07-14T06:10:34.788Z,18.6
2018-07-14T06:11:35.457Z,18.6
2018-07-14T06:12:36.130Z,18.7
2018-07-14T06:13:36.797Z,18.8
2018-07-14T06:14:37.466Z,18.7
2018-07-14T06:15:38.136Z,18.8
2018-07-14T06:16:38.811Z,18.8
2018-07-14T06:17:39.477Z,19.0
2018-07-14T06:18:40.151Z,19.5
2018-07-14T06:19:40.882Z,20.4
2018-07-14T06:20:41.493Z,21.4
2018-07-14T06:21:42.164Z,22.4
2018-07-14T06:22:42.834Z,23.3
2018-07-14T06:23:43.505Z,24.3
2018-07-14T06:24:44.178Z,25.1
2018-07-14T06:25:44.859Z,26.1
2018-07-14T06:26:45.526Z,27.0
2018-07-14T06:27:46.198Z,27.8
2018-07-14T06:28:46.872Z,28.5
2018-07-14T06:29:47.545Z,29.2
2018-07-14T06:30:48.220Z,29.8
2018-07-14T06:31:48.894Z,30.6
2018-07-14T06:32:49.620Z,31.2
2018-07-14T06:33:50.292Z,31.6
2018-07-14T06:34:50.970Z,32.2
2018-07-14T06:35:51.690Z,32.6
2018-07-14T06:36:52.367Z,32.9
2018-07-14T06:37:53.087Z,33.3
2018-07-14T06:38:53.765Z,33.5
2018-07-14T06:39:54.478Z,33.7
2018-07-14T06:40:55.167Z,34.1
2018-07-14T06:41:55.888Z,34.4
2018-07-14T06:42:56.566Z,34.9
2018-07-14T06:43:57.290Z,35.4
2018-07-14T06:44:57.969Z,35.6
2018-07-14T06:45:58.650Z,35.8
2018-07-14T06:46:59.375Z,35.8
2018-07-14T06:48:00.063Z,36.1
2018-07-14T06:49:00.777Z,36.2
2018-07-14T06:50:01.457Z,36.5
2018-07-14T06:51:02.137Z,36.7
2018-07-14T06:52:02.817Z,36.9
2018-07-14T06:53:03.498Z,37.0
2018-07-14T06:54:04.176Z,37.0
2018-07-14T06:55:04.854Z,36.8
2018-07-14T06:56:05.577Z,36.8
2018-07-14T06:57:06.299Z,37.0
2018-07-14T06:58:06.979Z,37.4
2018-07-14T06:59:07.659Z,37.5
2018-07-14T07:00:08.384Z,37.7
2018-07-14T07:01:09.066Z,37.8
2018-07-14T07:02:09.745Z,37.7
2018-07-14T07:03:10.426Z,37.9
2018-07-14T07:04:11.102Z,38.2
2018-07-14T07:05:11.781Z,38.3
2018-07-14T07:06:12.469Z,38.5
2018-07-14T07:07:13.186Z,38.7
2018-07-14T07:08:13.866Z,38.7
2018-07-14T07:09:14.545Z,38.8
2018-07-14T07:10:15.274Z,38.8
2018-07-14T07:11:15.955Z,39.1
2018-07-14T07:12:16.640Z,39.1
2018-07-14T07:13:17.318Z,39.0
2018-07-14T07:14:17.998Z,39.0
2018-07-14T07:15:18.728Z,39.1
2018-07-14T07:16:19.409Z,39.2
2018-07-14T07:17:20.089Z,39.3
2018-07-14T07:18:20.771Z,39.3
2018-07-14T07:19:21.452Z,39.1
2018-07-14T07:20:22.182Z,39.1
2018-07-14T07:21:22.897Z,38.8
2018-07-14T07:22:23.545Z,38.6
2018-07-14T07:23:24.225Z,38.6
2018-07-14T07:24:24.906Z,38.4
2018-07-14T07:25:25.593Z,37.7
2018-07-14T07:26:26.269Z,37.7
2018-07-14T07:27:26.950Z,37.8
2018-07-14T07:28:27.629Z,38.4
2018-07-14T07:29:28.309Z,38.7
2018-07-14T07:30:28.992Z,39.1
2018-07-14T07:31:29.714Z,39.1
2018-07-14T07:32:30.447Z,39.0
2018-07-14T07:33:31.187Z,39.1
2018-07-14T07:34:31.917Z,39.0
2018-07-14T07:35:32.578Z,38.9
2018-07-14T07:36:33.259Z,38.9
2018-07-14T07:37:33.946Z,38.9
2018-07-14T07:38:34.665Z,38.8
2018-07-14T07:39:35.390Z,38.6
2018-07-14T07:40:36.073Z,38.5
2018-07-14T07:41:36.755Z,38.8
2018-07-14T07:42:37.481Z,39.0
2018-07-14T07:43:38.161Z,39.2
2018-07-14T07:44:38.843Z,39.3
2018-07-14T07:45:39.524Z,39.7
2018-07-14T07:46:40.203Z,39.6
2018-07-14T07:47:40.928Z,39.7
2018-07-14T07:48:41.612Z,39.7
2018-07-14T07:49:42.295Z,39.9
2018-07-14T07:50:43.017Z,40.2
2018-07-14T07:51:43.697Z,40.5
2018-07-14T07:52:44.421Z,40.5
2018-07-14T07:53:45.148Z,40.2
2018-07-14T07:54:45.827Z,39.9
2018-07-14T07:55:46.506Z,40.0
2018-07-14T07:56:47.190Z,40.3
2018-07-14T07:57:47.911Z,40.4
2018-07-14T07:58:48.591Z,40.5
2018-07-14T07:59:49.318Z,40.7
2018-07-14T08:00:49.999Z,40.8
2018-07-14T08:01:50.681Z,40.8
2018-07-14T08:02:51.401Z,40.5
2018-07-14T08:03:52.080Z,40.2
2018-07-14T08:04:52.761Z,40.0
2018-07-14T08:05:53.443Z,40.2
2018-07-14T08:06:54.164Z,40.2
2018-07-14T08:07:54.843Z,40.4
2018-07-14T08:08:55.566Z,40.3
2018-07-14T08:09:56.287Z,40.5
2018-07-14T08:10:56.965Z,40.8
2018-07-14T08:11:57.645Z,40.9
2018-07-14T08:12:58.375Z,41.0
2018-07-14T08:13:59.100Z,40.8
2018-07-14T08:14:59.821Z,41.0
2018-07-14T08:16:00.552Z,41.0
2018-07-14T08:17:01.219Z,40.7
2018-07-14T08:18:01.899Z,40.4
2018-07-14T08:19:02.622Z,40.1
2018-07-14T08:20:03.302Z,39.5
2018-07-14T08:21:03.982Z,39.4
2018-07-14T08:22:04.660Z,39.4
2018-07-14T08:23:05.341Z,39.7
2018-07-14T08:24:06.015Z,39.7
2018-07-14T08:25:06.692Z,39.5
2018-07-14T08:26:07.370Z,39.6
2018-07-14T08:27:08.048Z,39.8
2018-07-14T08:28:08.726Z,40.2
2018-07-14T08:29:09.404Z,40.5
2018-07-14T08:30:10.081Z,40.8
2018-07-14T08:31:10.759Z,41.0
2018-07-14T08:32:11.439Z,40.9
2018-07-14T08:33:12.116Z,41.1
2018-07-14T08:34:12.793Z,41.0
2018-07-14T08:35:13.515Z,40.7
2018-07-14T08:36:14.194Z,40.7
2018-07-14T08:37:14.874Z,40.7
2018-07-14T08:38:15.554Z,40.7
2018-07-14T08:39:16.234Z,40.5
2018-07-14T08:40:16.913Z,40.5
2018-07-14T08:41:17.591Z,40.6
2018-07-14T08:42:18.272Z,40.6
2018-07-14T08:43:18.990Z,40.5
2018-07-14T08:44:19.671Z,40.5
2018-07-14T08:45:20.390Z,40.8
2018-07-14T08:46:21.068Z,40.7
2018-07-14T08:47:21.792Z,40.5
2018-07-14T08:48:22.471Z,40.0
2018-07-14T08:49:23.149Z,39.7
2018-07-14T08:50:23.862Z,39.7
2018-07-14T08:51:24.516Z,39.3
2018-07-14T08:52:25.183Z,39.1
2018-07-14T08:53:25.862Z,39.2
2018-07-14T08:54:26.542Z,39.1
2018-07-14T08:55:27.219Z,38.9
2018-07-14T08:56:27.896Z,39.1
2018-07-14T08:57:28.574Z,39.1
2018-07-14T08:58:29.298Z,39.2
2018-07-14T08:59:29.973Z,39.1
2018-07-14T09:00:30.651Z,39.2
2018-07-14T09:01:31.327Z,39.3
2018-07-14T09:02:32.005Z,39.4
2018-07-14T09:03:32.738Z,39.4
2018-07-14T09:04:33.364Z,38.8
2018-07-14T09:05:34.045Z,38.8
2018-07-14T09:06:34.768Z,38.7
2018-07-14T09:07:35.446Z,38.6
2018-07-14T09:08:36.127Z,38.3
2018-07-14T09:09:36.801Z,38.4
2018-07-14T09:10:37.479Z,38.8
2018-07-14T09:11:38.158Z,38.9
2018-07-14T09:12:38.836Z,39.1
2018-07-14T09:13:39.561Z,39.1
2018-07-14T09:14:40.238Z,39.3
2018-07-14T09:15:40.916Z,39.7
2018-07-14T09:16:41.595Z,40.1
2018-07-14T09:17:42.276Z,40.4
2018-07-14T09:18:42.953Z,40.3
2018-07-14T09:19:43.676Z,40.2
2018-07-14T09:20:44.353Z,40.0
2018-07-14T09:21:45.032Z,40.0
2018-07-14T09:22:45.709Z,40.1
2018-07-14T09:23:46.386Z,40.2
2018-07-14T09:24:47.064Z,40.4
2018-07-14T09:25:47.742Z,40.6
2018-07-14T09:26:48.419Z,40.5
2018-07-14T09:27:49.096Z,40.5
2018-07-14T09:28:49.774Z,40.4
2018-07-14T09:29:50.452Z,39.9
2018-07-14T09:30:51.174Z,39.4
2018-07-14T09:31:51.856Z,39.0
2018-07-14T09:32:52.577Z,38.7
2018-07-14T09:33:53.257Z,38.2
2018-07-14T09:34:53.983Z,37.7
2018-07-14T09:35:54.694Z,37.6
2018-07-14T09:36:55.373Z,37.7
2018-07-14T09:37:56.113Z,38.0
2018-07-14T09:38:56.770Z,38.2
2018-07-14T09:39:57.491Z,38.4
2018-07-14T09:40:58.172Z,38.3
2018-07-14T09:41:58.848Z,38.0
2018-07-14T09:42:59.530Z,38.0
2018-07-14T09:44:00.294Z,38.0
2018-07-14T09:45:00.929Z,38.1
2018-07-14T09:46:01.608Z,38.3
2018-07-14T09:47:02.287Z,38.4
2018-07-14T09:48:02.965Z,38.4
2018-07-14T09:49:03.643Z,38.5
2018-07-14T09:50:04.366Z,38.6
2018-07-14T09:51:05.043Z,38.6
2018-07-14T09:52:05.721Z,38.3
2018-07-14T09:53:06.399Z,38.2
2018-07-14T09:54:07.119Z,38.1
2018-07-14T09:55:07.830Z,37.8
2018-07-14T09:56:08.478Z,37.7
2018-07-14T09:57:09.155Z,37.8
2018-07-14T09:58:09.877Z,38.0
2018-07-14T09:59:10.601Z,37.9
2018-07-14T10:00:11.313Z,38.0
2018-07-14T10:01:12.004Z,38.1
2018-07-14T10:02:12.681Z,38.2
2018-07-14T10:03:13.359Z,38.0
2018-07-14T10:04:14.036Z,37.9
2018-07-14T10:05:14.715Z,37.6
2018-07-14T10:06:15.426Z,37.2
2018-07-14T10:07:16.111Z,36.9
2018-07-14T10:08:16.786Z,36.8
2018-07-14T10:09:17.465Z,36.7
2018-07-14T10:10:18.143Z,36.7
2018-07-14T10:11:18.822Z,36.9
2018-07-14T10:12:19.502Z,36.6
2018-07-14T10:13:20.266Z,36.4
2018-07-14T10:14:20.861Z,36.5
2018-07-14T10:15:21.538Z,36.5
2018-07-14T10:16:22.260Z,36.5
2018-07-14T10:17:22.961Z,36.3
2018-07-14T10:18:23.616Z,36.4
2018-07-14T10:19:24.293Z,36.2
2018-07-14T10:20:24.969Z,36.2
2018-07-14T10:21:25.648Z,36.2
2018-07-14T10:22:26.325Z,36.0
2018-07-14T10:23:27.005Z,35.9
2018-07-14T10:24:27.688Z,35.5
2018-07-14T10:25:28.450Z,35.2
2018-07-14T10:26:29.120Z,34.9
2018-07-14T10:27:29.844Z,34.6
2018-07-14T10:28:30.523Z,34.4
2018-07-14T10:29:31.209Z,34.1
2018-07-14T10:30:31.882Z,34.1
2018-07-14T10:31:32.561Z,34.2
2018-07-14T10:32:33.282Z,34.2
2018-07-14T10:33:34.019Z,34.3
2018-07-14T10:34:34.658Z,34.0
2018-07-14T10:35:35.360Z,33.4
2018-07-14T10:36:36.038Z,33.0
2018-07-14T10:37:36.716Z,32.7
2018-07-14T10:38:37.439Z,32.6
2018-07-14T10:39:38.108Z,32.3
2018-07-14T10:40:38.820Z,32.1
2018-07-14T10:41:39.499Z,31.9
2018-07-14T10:42:40.177Z,31.8
2018-07-14T10:43:40.854Z,31.7
2018-07-14T10:44:41.535Z,31.5
2018-07-14T10:45:42.276Z,31.3
2018-07-14T10:46:43.041Z,31.1
2018-07-14T10:47:43.654Z,30.8
2018-07-14T10:48:44.333Z,30.6
2018-07-14T10:49:45.012Z,30.3
2018-07-14T10:50:45.690Z,30.1
2018-07-14T10:51:46.368Z,30.0
2018-07-14T10:52:47.045Z,29.9
2018-07-14T10:53:47.766Z,29.9
2018-07-14T10:54:48.487Z,29.9
2018-07-14T10:55:49.165Z,29.8
2018-07-14T10:56:49.842Z,29.9
2018-07-14T10:57:50.596Z,30.0
2018-07-14T10:58:51.287Z,30.0
2018-07-14T10:59:52.010Z,30.0
2018-07-14T11:00:52.688Z,30.1
2018-07-14T11:01:53.367Z,30.1
2018-07-14T11:02:54.089Z,30.0
2018-07-14T11:03:54.809Z,30.0
2018-07-14T11:04:55.532Z,30.1
2018-07-14T11:05:56.210Z,30.0
2018-07-14T11:06:56.928Z,29.8
2018-07-14T11:07:57.623Z,29.5
2018-07-14T11:08:58.327Z,29.3
2018-07-14T11:09:59.034Z,29.0
2018-07-14T11:10:59.726Z,28.9
2018-07-14T11:12:00.449Z,28.8
2018-07-14T11:13:01.116Z,28.8
2018-07-14T11:14:01.797Z,28.7
2018-07-14T11:15:02.512Z,28.7
2018-07-14T11:16:03.188Z,28.7
2018-07-14T11:17:03.864Z,28.8
2018-07-14T11:18:04.540Z,28.9
2018-07-14T11:19:05.245Z,29.0
2018-07-14T11:20:05.988Z,29.1
2018-07-14T11:21:06.670Z,29.1
2018-07-14T11:22:07.341Z,29.1
2018-07-14T11:23:08.016Z,29.2
2018-07-14T11:24:08.691Z,29.1
2018-07-14T11:25:09.367Z,29.1
2018-07-14T11:26:10.044Z,29.1
2018-07-14T11:27:10.724Z,29.1
2018-07-14T11:28:11.396Z,29.0
2018-07-14T11:29:12.072Z,29.0
2018-07-14T11:30:12.810Z,29.1
2018-07-14T11:31:13.460Z,29.0
2018-07-14T11:32:14.137Z,28.9
2018-07-14T11:33:14.815Z,28.8
2018-07-14T11:34:15.535Z,28.8
2018-07-14T11:35:16.261Z,28.8
2018-07-14T11:36:16.938Z,28.8
2018-07-14T11:37:17.612Z,28.9
2018-07-14T11:38:18.288Z,28.8
2018-07-14T11:39:18.962Z,28.9
2018-07-14T11:40:19.689Z,28.9
2018-07-14T11:41:20.411Z,29.0
2018-07-14T11:42:21.089Z,28.9
2018-07-14T11:43:21.768Z,28.7
2018-07-14T11:44:22.484Z,28.7
2018-07-14T11:45:23.312Z,28.7
2018-07-14T11:46:23.986Z,28.8
2018-07-14T11:47:24.696Z,28.8
2018-07-14T11:48:25.349Z,28.8
2018-07-14T11:49:26.059Z,29.0
2018-07-14T11:50:26.736Z,29.0
2018-07-14T11:51:27.460Z,29.2
2018-07-14T11:52:28.135Z,29.2
2018-07-14T11:53:28.810Z,29.2
2018-07-14T11:54:29.485Z,29.2
2018-07-14T11:55:30.162Z,29.2
2018-07-14T11:56:30.837Z,29.3
2018-07-14T11:57:31.558Z,29.3
2018-07-14T11:58:32.235Z,29.3
2018-07-14T11:59:32.921Z,29.2
2018-07-14T12:00:33.631Z,29.1
2018-07-14T12:01:34.350Z,29.0
2018-07-14T12:02:35.027Z,29.0
2018-07-14T12:03:35.703Z,29.0
2018-07-14T12:04:36.377Z,29.0
2018-07-14T12:05:37.055Z,29.0
2018-07-14T12:06:37.931Z,29.0
2018-07-14T12:07:38.652Z,29.0
2018-07-14T12:08:39.329Z,29.0
2018-07-14T12:09:40.048Z,29.1
2018-07-14T12:10:40.724Z,29.0
2018-07-14T12:11:41.446Z,29.2
2018-07-14T12:12:42.122Z,29.1
2018-07-14T12:13:42.797Z,29.2
2018-07-14T12:14:43.474Z,29.2
2018-07-14T12:15:44.152Z,29.3
2018-07-14T12:16:44.831Z,29.2
2018-07-14T12:17:45.509Z,29.2
2018-07-14T12:18:46.185Z,29.2
2018-07-14T12:19:46.861Z,29.1
2018-07-14T12:20:47.551Z,29.2
2018-07-14T12:21:48.258Z,29.3
2018-07-14T12:22:48.931Z,29.3
2018-07-14T12:23:49.609Z,29.5
2018-07-14T12:24:50.282Z,29.6
2018-07-14T12:25:51.001Z,29.5
2018-07-14T12:26:51.767Z,29.6
2018-07-14T12:27:52.409Z,29.8
2018-07-14T12:28:53.049Z,29.7
2018-07-14T12:29:53.712Z,29.6
2018-07-14T12:30:54.387Z,29.7
2018-07-14T12:31:55.062Z,29.6
2018-07-14T12:32:55.781Z,29.5
2018-07-14T12:33:56.459Z,29.4
2018-07-14T12:34:57.132Z,29.4
2018-07-14T12:35:57.809Z,29.3
2018-07-14T12:36:58.484Z,29.3
2018-07-14T12:37:59.160Z,29.3
2018-07-14T12:38:59.837Z,29.3
2018-07-14T12:40:00.517Z,29.2
2018-07-14T12:41:01.236Z,29.0
2018-07-14T12:42:01.959Z,28.9
2018-07-14T12:43:02.639Z,28.9
2018-07-14T12:44:03.311Z,28.8
2018-07-14T12:45:03.989Z,28.8
2018-07-14T12:46:04.668Z,28.8
2018-07-14T12:47:05.342Z,28.7
2018-07-14T12:48:06.020Z,28.7
2018-07-14T12:49:06.695Z,28.6
2018-07-14T12:50:07.370Z,28.6
2018-07-14T12:51:08.046Z,28.7
2018-07-14T12:52:08.722Z,28.7
2018-07-14T12:53:09.398Z,28.7
2018-07-14T12:54:10.074Z,28.6
2018-07-14T12:55:10.792Z,28.5
2018-07-14T12:56:11.468Z,28.5
2018-07-14T12:57:12.145Z,28.5
2018-07-14T12:58:12.823Z,28.3
2018-07-14T12:59:13.495Z,28.3
2018-07-14T13:00:14.222Z,28.3
2018-07-14T13:01:14.853Z,28.4
2018-07-14T13:02:15.563Z,28.5
2018-07-14T13:03:16.238Z,28.5
2018-07-14T13:04:16.916Z,28.6
2018-07-14T13:05:17.593Z,28.6
2018-07-14T13:06:18.269Z,28.6
2018-07-14T13:07:18.945Z,28.6
2018-07-14T13:08:19.625Z,28.6
2018-07-14T13:09:20.300Z,28.7
2018-07-14T13:10:20.975Z,28.6
2018-07-14T13:11:21.652Z,28.6
2018-07-14T13:12:22.325Z,28.6
2018-07-14T13:13:23.001Z,28.6
2018-07-14T13:14:23.735Z,28.6
2018-07-14T13:15:24.390Z,28.8
2018-07-14T13:16:25.075Z,28.8
2018-07-14T13:17:25.753Z,28.8
2018-07-14T13:18:26.426Z,28.8
2018-07-14T13:19:27.102Z,28.8
2018-07-14T13:20:27.777Z,28.9
2018-07-14T13:21:28.452Z,28.8
2018-07-14T13:22:29.172Z,28.8
2018-07-14T13:23:29.847Z,28.8
2018-07-14T13:24:30.521Z,28.8
2018-07-14T13:25:31.196Z,28.6
2018-07-14T13:26:31.872Z,28.6
2018-07-14T13:27:32.592Z,28.6